PWSweather.com
Personal Weather Stations
Station Observations
WISCHPK61
Green Bay Schmitt Park, Green Bay, WI 54311

Green Bay Schmitt ParkGreen Bay, WI 54311

Lat: 44.514277, Lon: -87.935067

Elevation: 735

Station Type: Acu Rite Pro Weather Center model 02032C

http://greenbayweathercam.com

High Low Average
Temperature 49.6°F9.8°C 26.2°F-3.2°C 35.9°F2.2°C
Dew Point 49.3°F9.6°C 24.2°F-4.3°C 34.1°F1.2°C
Winds Calm Calm Calm Calm Calm SSECalm SSE
Wind Gusts 1.2 mph1.9 kmh -- --
Humidity 99% 66% 94%
Pressure 29.54 in1000.3 mb 29.21 in989.2 mb -
Precipitation 0.00 in0.0 mm - -
Hour Temp Dew Point Humidity Winds Wind Gusts Pressure Precip Precip Rate Daily Precip Total
12:00 AM 35.7°F2.1°C 35.5°F1.9°C 99% Calm Calm -- 29.20 in988.8 mb - 0.00 in0.0 mm 0.00 in0.0 mm
01:00 AM 32.9°F0.5°C 32.7°F0.4°C 99% Calm Calm -- 29.21 in989.2 mb - 0.00 in0.0 mm 0.00 in0.0 mm
02:00 AM 32.7°F0.4°C 26.0°F-3.3°C 76% Calm Calm -- 29.23 in989.8 mb - 0.00 in0.0 mm 0.00 in0.0 mm
03:00 AM 32.5°F0.3°C 32.3°F0.2°C 99% Calm Calm -- 29.24 in990.2 mb - 0.00 in0.0 mm 0.00 in0.0 mm
04:00 AM 32.5°F0.3°C 29.1°F-1.6°C 87% Calm Calm -- 29.24 in990.2 mb - 0.00 in0.0 mm 0.00 in0.0 mm
05:00 AM 32.9°F0.5°C 32.7°F0.4°C 99% Calm Calm -- 29.25 in990.5 mb - 0.00 in0.0 mm 0.00 in0.0 mm
06:00 AM 31.3°F-0.4°C 31.1°F-0.5°C 99% Calm Calm -- 29.27 in991.2 mb - 0.00 in0.0 mm 0.00 in0.0 mm
07:00 AM 32.9°F0.5°C 32.7°F0.4°C 99% Calm Calm -- 29.32 in992.9 mb - 0.00 in0.0 mm 0.00 in0.0 mm
08:00 AM 33.4°F0.8°C 33.1°F0.6°C 99% Calm Calm -- 29.34 in993.6 mb - 0.00 in0.0 mm 0.00 in0.0 mm
09:00 AM 37.2°F2.9°C 26.9°F-2.8°C 66% Calm Calm -- 29.37 in994.6 mb - 0.00 in0.0 mm 0.00 in0.0 mm
10:00 AM 35.8°F2.1°C 35.6°F2.0°C 99% Calm Calm -- 29.41 in995.9 mb - 0.00 in0.0 mm 0.00 in0.0 mm
11:00 AM 38.6°F3.7°C 32.0°F0.0°C 77% Calm Calm -- 29.44 in997.0 mb - 0.00 in0.0 mm 0.00 in0.0 mm
12:00 PM 44.2°F6.8°C 43.9°F6.6°C 99% Calm Calm -- 29.46 in997.6 mb - 0.00 in0.0 mm 0.00 in0.0 mm
01:00 PM 46.8°F8.2°C 46.5°F8.1°C 99% Calm Calm 1.2 mph1.9 kmh 29.46 in997.6 mb - 0.00 in0.0 mm 0.00 in0.0 mm
02:00 PM 49.5°F9.7°C 49.3°F9.6°C 99% Calm Calm -- 29.47 in998.0 mb - 0.00 in0.0 mm 0.00 in0.0 mm
03:00 PM 49.6°F9.8°C 49.3°F9.6°C 99% Calm Calm -- 29.47 in998.0 mb - 0.00 in0.0 mm 0.00 in0.0 mm
04:00 PM 42.4°F5.8°C 42.2°F5.7°C 99% Calm Calm -- 29.48 in998.3 mb - 0.00 in0.0 mm 0.00 in0.0 mm
05:00 PM 40.5°F4.7°C 40.2°F4.6°C 99% Calm Calm -- 29.48 in998.3 mb - 0.00 in0.0 mm 0.00 in0.0 mm
06:00 PM 37.9°F3.3°C 29.6°F-1.3°C 72% Calm Calm -- 29.48 in998.3 mb - 0.00 in0.0 mm 0.00 in0.0 mm
07:00 PM 35.1°F1.7°C 34.8°F1.6°C 99% Calm Calm -- 29.49 in998.6 mb - 0.00 in0.0 mm 0.00 in0.0 mm
08:00 PM 31.6°F-0.2°C 31.4°F-0.3°C 99% Calm Calm -- 29.50 in999.0 mb - 0.00 in0.0 mm 0.00 in0.0 mm
09:00 PM 28.9°F-1.7°C 28.7°F-1.8°C 99% Calm Calm -- 29.51 in999.3 mb - 0.00 in0.0 mm 0.00 in0.0 mm
10:00 PM 28.4°F-2.0°C 28.2°F-2.1°C 99% Calm Calm -- 29.52 in999.7 mb - 0.00 in0.0 mm 0.00 in0.0 mm
11:00 PM 27.3°F-2.6°C 24.2°F-4.3°C 88% Calm Calm -- 29.53 in1000.0 mb - 0.00 in0.0 mm 0.00 in0.0 mm